sensor_id;sensor_type;location;lat;lon;timestamp;P1;durP1;ratioP1;P2;durP2;ratioP2
44228;SDS011;29904;51.058;5.378;2023-04-03T00:01:44;4.28;;;3.10;;
44228;SDS011;29904;51.058;5.378;2023-04-03T00:04:10;5.13;;;3.08;;
44228;SDS011;29904;51.058;5.378;2023-04-03T00:06:36;4.20;;;3.00;;
44228;SDS011;29904;51.058;5.378;2023-04-03T00:09:01;5.47;;;2.90;;
44228;SDS011;29904;51.058;5.378;2023-04-03T00:11:27;4.18;;;2.92;;
44228;SDS011;29904;51.058;5.378;2023-04-03T00:13:53;3.80;;;2.90;;
44228;SDS011;29904;51.058;5.378;2023-04-03T00:16:19;3.75;;;2.80;;
44228;SDS011;29904;51.058;5.378;2023-04-03T00:18:45;4.30;;;3.10;;
44228;SDS011;29904;51.058;5.378;2023-04-03T00:21:12;4.83;;;3.07;;
44228;SDS011;29904;51.058;5.378;2023-04-03T00:23:38;4.28;;;3.00;;
44228;SDS011;29904;51.058;5.378;2023-04-03T00:26:06;3.80;;;2.83;;
44228;SDS011;29904;51.058;5.378;2023-04-03T00:28:32;3.90;;;3.17;;
44228;SDS011;29904;51.058;5.378;2023-04-03T00:30:58;4.63;;;2.80;;
44228;SDS011;29904;51.058;5.378;2023-04-03T00:33:25;5.23;;;3.10;;
44228;SDS011;29904;51.058;5.378;2023-04-03T00:35:51;4.23;;;2.90;;
44228;SDS011;29904;51.058;5.378;2023-04-03T00:38:19;4.90;;;3.00;;
44228;SDS011;29904;51.058;5.378;2023-04-03T00:40:46;4.55;;;3.00;;
44228;SDS011;29904;51.058;5.378;2023-04-03T00:43:14;5.43;;;3.05;;
44228;SDS011;29904;51.058;5.378;2023-04-03T00:45:43;4.32;;;3.00;;
44228;SDS011;29904;51.058;5.378;2023-04-03T00:48:12;4.43;;;3.10;;
44228;SDS011;29904;51.058;5.378;2023-04-03T00:50:58;4.30;;;3.00;;
44228;SDS011;29904;51.058;5.378;2023-04-03T00:53:27;5.32;;;3.00;;
44228;SDS011;29904;51.058;5.378;2023-04-03T00:56:06;5.28;;;3.00;;
44228;SDS011;29904;51.058;5.378;2023-04-03T00:58:46;4.57;;;2.80;;
44228;SDS011;29904;51.058;5.378;2023-04-03T01:01:18;5.97;;;3.28;;
44228;SDS011;29904;51.058;5.378;2023-04-03T01:03:48;4.95;;;3.30;;
44228;SDS011;29904;51.058;5.378;2023-04-03T01:06:14;5.80;;;3.05;;
44228;SDS011;29904;51.058;5.378;2023-04-03T01:08:42;5.00;;;3.47;;
44228;SDS011;29904;51.058;5.378;2023-04-03T01:11:12;5.72;;;3.50;;
44228;SDS011;29904;51.058;5.378;2023-04-03T01:13:37;5.78;;;3.35;;
44228;SDS011;29904;51.058;5.378;2023-04-03T01:16:04;4.43;;;3.10;;
44228;SDS011;29904;51.058;5.378;2023-04-03T01:18:32;4.53;;;3.10;;
44228;SDS011;29904;51.058;5.378;2023-04-03T01:26:39;5.30;;;3.17;;
44228;SDS011;29904;51.058;5.378;2023-04-03T01:29:05;3.85;;;3.05;;
44228;SDS011;29904;51.058;5.378;2023-04-03T01:31:31;4.33;;;3.20;;
44228;SDS011;29904;51.058;5.378;2023-04-03T01:34:05;5.10;;;3.60;;
44228;SDS011;29904;51.058;5.378;2023-04-03T01:36:31;4.25;;;3.30;;
44228;SDS011;29904;51.058;5.378;2023-04-03T01:38:57;5.18;;;3.50;;
44228;SDS011;29904;51.058;5.378;2023-04-03T01:41:24;5.68;;;3.03;;
44228;SDS011;29904;51.058;5.378;2023-04-03T01:43:51;4.30;;;3.10;;
44228;SDS011;29904;51.058;5.378;2023-04-03T01:46:17;5.60;;;3.20;;
44228;SDS011;29904;51.058;5.378;2023-04-03T01:48:43;3.83;;;3.40;;
44228;SDS011;29904;51.058;5.378;2023-04-03T01:51:09;4.13;;;3.38;;
44228;SDS011;29904;51.058;5.378;2023-04-03T01:53:37;6.38;;;3.63;;
44228;SDS011;29904;51.058;5.378;2023-04-03T01:56:03;5.53;;;3.33;;
44228;SDS011;29904;51.058;5.378;2023-04-03T01:58:29;5.38;;;3.63;;
44228;SDS011;29904;51.058;5.378;2023-04-03T02:00:56;5.53;;;3.80;;
44228;SDS011;29904;51.058;5.378;2023-04-03T02:03:22;6.10;;;3.40;;
44228;SDS011;29904;51.058;5.378;2023-04-03T02:05:49;4.88;;;3.35;;
44228;SDS011;29904;51.058;5.378;2023-04-03T02:08:16;5.13;;;3.40;;
44228;SDS011;29904;51.058;5.378;2023-04-03T02:10:46;5.32;;;3.58;;
44228;SDS011;29904;51.058;5.378;2023-04-03T02:13:13;4.70;;;3.58;;
44228;SDS011;29904;51.058;5.378;2023-04-03T02:15:38;5.28;;;3.72;;
44228;SDS011;29904;51.058;5.378;2023-04-03T02:18:04;6.17;;;3.60;;
44228;SDS011;29904;51.058;5.378;2023-04-03T02:20:31;5.55;;;3.80;;
44228;SDS011;29904;51.058;5.378;2023-04-03T02:22:59;4.85;;;3.75;;
44228;SDS011;29904;51.058;5.378;2023-04-03T02:25:27;6.97;;;3.72;;
44228;SDS011;29904;51.058;5.378;2023-04-03T02:27:53;5.55;;;3.80;;
44228;SDS011;29904;51.058;5.378;2023-04-03T02:30:19;5.53;;;3.80;;
44228;SDS011;29904;51.058;5.378;2023-04-03T02:32:45;4.32;;;3.53;;
44228;SDS011;29904;51.058;5.378;2023-04-03T02:35:11;4.97;;;3.70;;
44228;SDS011;29904;51.058;5.378;2023-04-03T02:37:37;5.90;;;3.88;;
44228;SDS011;29904;51.058;5.378;2023-04-03T02:40:05;5.05;;;3.72;;
44228;SDS011;29904;51.058;5.378;2023-04-03T02:42:31;5.05;;;3.90;;
44228;SDS011;29904;51.058;5.378;2023-04-03T02:44:57;6.10;;;4.10;;
44228;SDS011;29904;51.058;5.378;2023-04-03T02:47:28;5.72;;;4.15;;
44228;SDS011;29904;51.058;5.378;2023-04-03T02:49:53;4.73;;;4.10;;
44228;SDS011;29904;51.058;5.378;2023-04-03T02:52:19;6.53;;;4.40;;
44228;SDS011;29904;51.058;5.378;2023-04-03T02:54:45;7.47;;;4.65;;
44228;SDS011;29904;51.058;5.378;2023-04-03T02:57:13;5.40;;;4.32;;
44228;SDS011;29904;51.058;5.378;2023-04-03T02:59:39;5.20;;;4.13;;
44228;SDS011;29904;51.058;5.378;2023-04-03T03:02:06;5.82;;;4.18;;
44228;SDS011;29904;51.058;5.378;2023-04-03T03:04:33;6.93;;;4.43;;
44228;SDS011;29904;51.058;5.378;2023-04-03T03:06:58;6.57;;;4.45;;
44228;SDS011;29904;51.058;5.378;2023-04-03T03:09:24;6.37;;;4.20;;
44228;SDS011;29904;51.058;5.378;2023-04-03T03:11:52;6.50;;;4.38;;
44228;SDS011;29904;51.058;5.378;2023-04-03T03:14:18;6.43;;;4.20;;
44228;SDS011;29904;51.058;5.378;2023-04-03T03:16:43;5.47;;;4.20;;
44228;SDS011;29904;51.058;5.378;2023-04-03T03:19:09;6.30;;;4.72;;
44228;SDS011;29904;51.058;5.378;2023-04-03T03:21:35;6.63;;;4.30;;
44228;SDS011;29904;51.058;5.378;2023-04-03T03:24:01;6.85;;;4.90;;
44228;SDS011;29904;51.058;5.378;2023-04-03T03:26:28;8.50;;;5.00;;
44228;SDS011;29904;51.058;5.378;2023-04-03T03:28:54;7.32;;;5.30;;
44228;SDS011;29904;51.058;5.378;2023-04-03T03:31:20;7.78;;;5.00;;
44228;SDS011;29904;51.058;5.378;2023-04-03T03:33:48;8.32;;;5.32;;
44228;SDS011;29904;51.058;5.378;2023-04-03T03:36:14;6.85;;;5.03;;
44228;SDS011;29904;51.058;5.378;2023-04-03T03:38:39;5.80;;;4.60;;
44228;SDS011;29904;51.058;5.378;2023-04-03T03:41:05;7.93;;;5.30;;
44228;SDS011;29904;51.058;5.378;2023-04-03T03:43:31;7.57;;;5.45;;
44228;SDS011;29904;51.058;5.378;2023-04-03T03:45:57;6.55;;;5.13;;
44228;SDS011;29904;51.058;5.378;2023-04-03T03:48:23;8.13;;;5.60;;
44228;SDS011;29904;51.058;5.378;2023-04-03T03:50:49;6.03;;;5.05;;
44228;SDS011;29904;51.058;5.378;2023-04-03T03:53:15;7.23;;;5.50;;
44228;SDS011;29904;51.058;5.378;2023-04-03T03:55:44;7.88;;;5.57;;
44228;SDS011;29904;51.058;5.378;2023-04-03T03:58:10;7.97;;;5.53;;
44228;SDS011;29904;51.058;5.378;2023-04-03T04:00:35;6.87;;;5.70;;
44228;SDS011;29904;51.058;5.378;2023-04-03T04:03:03;7.93;;;5.75;;
44228;SDS011;29904;51.058;5.378;2023-04-03T04:05:29;8.10;;;5.75;;
44228;SDS011;29904;51.058;5.378;2023-04-03T04:07:55;8.50;;;5.60;;
44228;SDS011;29904;51.058;5.378;2023-04-03T04:10:21;8.48;;;6.00;;
44228;SDS011;29904;51.058;5.378;2023-04-03T04:12:47;8.77;;;6.30;;
44228;SDS011;29904;51.058;5.378;2023-04-03T04:15:14;9.40;;;6.55;;
44228;SDS011;29904;51.058;5.378;2023-04-03T04:17:42;8.95;;;6.38;;
44228;SDS011;29904;51.058;5.378;2023-04-03T04:20:08;8.57;;;6.40;;
44228;SDS011;29904;51.058;5.378;2023-04-03T04:22:34;9.52;;;6.20;;
44228;SDS011;29904;51.058;5.378;2023-04-03T04:25:03;10.07;;;6.40;;
44228;SDS011;29904;51.058;5.378;2023-04-03T04:27:30;9.43;;;6.93;;
44228;SDS011;29904;51.058;5.378;2023-04-03T04:29:55;9.02;;;7.25;;
44228;SDS011;29904;51.058;5.378;2023-04-03T04:32:21;8.75;;;7.00;;
44228;SDS011;29904;51.058;5.378;2023-04-03T04:34:47;10.23;;;7.50;;
44228;SDS011;29904;51.058;5.378;2023-04-03T04:37:13;9.53;;;6.80;;
44228;SDS011;29904;51.058;5.378;2023-04-03T04:39:38;10.40;;;7.53;;
44228;SDS011;29904;51.058;5.378;2023-04-03T04:42:04;11.27;;;7.28;;
44228;SDS011;29904;51.058;5.378;2023-04-03T04:44:32;10.18;;;7.20;;
44228;SDS011;29904;51.058;5.378;2023-04-03T04:47:00;9.85;;;6.68;;
44228;SDS011;29904;51.058;5.378;2023-04-03T04:49:26;8.70;;;6.73;;
44228;SDS011;29904;51.058;5.378;2023-04-03T04:51:52;9.30;;;7.17;;
44228;SDS011;29904;51.058;5.378;2023-04-03T04:54:20;10.57;;;7.50;;
44228;SDS011;29904;51.058;5.378;2023-04-03T04:56:46;10.03;;;7.33;;
44228;SDS011;29904;51.058;5.378;2023-04-03T04:59:12;10.02;;;7.50;;
44228;SDS011;29904;51.058;5.378;2023-04-03T05:01:37;10.48;;;7.80;;
44228;SDS011;29904;51.058;5.378;2023-04-03T05:04:03;10.27;;;7.55;;
44228;SDS011;29904;51.058;5.378;2023-04-03T05:06:29;9.63;;;7.32;;
44228;SDS011;29904;51.058;5.378;2023-04-03T05:08:56;11.70;;;7.85;;
44228;SDS011;29904;51.058;5.378;2023-04-03T05:11:22;10.27;;;7.70;;
44228;SDS011;29904;51.058;5.378;2023-04-03T05:13:48;9.35;;;7.20;;
44228;SDS011;29904;51.058;5.378;2023-04-03T05:16:14;10.90;;;7.00;;
44228;SDS011;29904;51.058;5.378;2023-04-03T05:18:40;9.85;;;7.10;;
44228;SDS011;29904;51.058;5.378;2023-04-03T05:21:06;8.77;;;6.50;;
44228;SDS011;29904;51.058;5.378;2023-04-03T05:23:31;9.00;;;7.13;;
44228;SDS011;29904;51.058;5.378;2023-04-03T05:25:57;9.65;;;6.95;;
44228;SDS011;29904;51.058;5.378;2023-04-03T05:28:23;9.00;;;6.83;;
44228;SDS011;29904;51.058;5.378;2023-04-03T05:30:55;9.48;;;6.70;;
44228;SDS011;29904;51.058;5.378;2023-04-03T05:33:22;11.13;;;6.72;;
44228;SDS011;29904;51.058;5.378;2023-04-03T05:35:49;11.85;;;7.20;;
44228;SDS011;29904;51.058;5.378;2023-04-03T05:38:15;9.80;;;6.70;;
44228;SDS011;29904;51.058;5.378;2023-04-03T05:40:41;8.88;;;6.50;;
44228;SDS011;29904;51.058;5.378;2023-04-03T05:43:07;9.67;;;6.00;;
44228;SDS011;29904;51.058;5.378;2023-04-03T05:45:32;9.63;;;6.30;;
44228;SDS011;29904;51.058;5.378;2023-04-03T05:48:00;8.93;;;6.18;;
44228;SDS011;29904;51.058;5.378;2023-04-03T05:50:28;7.43;;;5.32;;
44228;SDS011;29904;51.058;5.378;2023-04-03T05:52:55;9.90;;;5.78;;
44228;SDS011;29904;51.058;5.378;2023-04-03T05:55:23;8.98;;;5.10;;
44228;SDS011;29904;51.058;5.378;2023-04-03T05:57:50;7.75;;;5.10;;
44228;SDS011;29904;51.058;5.378;2023-04-03T06:00:16;8.02;;;4.68;;
44228;SDS011;29904;51.058;5.378;2023-04-03T06:02:42;8.38;;;4.38;;
44228;SDS011;29904;51.058;5.378;2023-04-03T06:05:11;8.45;;;4.55;;
44228;SDS011;29904;51.058;5.378;2023-04-03T06:07:38;6.97;;;4.20;;
44228;SDS011;29904;51.058;5.378;2023-04-03T06:10:04;6.20;;;3.88;;
44228;SDS011;29904;51.058;5.378;2023-04-03T06:12:32;5.70;;;4.25;;
44228;SDS011;29904;51.058;5.378;2023-04-03T06:14:58;5.53;;;3.63;;
44228;SDS011;29904;51.058;5.378;2023-04-03T06:17:23;8.00;;;4.10;;
44228;SDS011;29904;51.058;5.378;2023-04-03T06:19:52;8.15;;;3.78;;
44228;SDS011;29904;51.058;5.378;2023-04-03T06:22:18;7.22;;;3.70;;
44228;SDS011;29904;51.058;5.378;2023-04-03T06:24:44;5.93;;;3.20;;
44228;SDS011;29904;51.058;5.378;2023-04-03T06:27:12;8.10;;;3.40;;
44228;SDS011;29904;51.058;5.378;2023-04-03T06:29:38;8.73;;;3.60;;
44228;SDS011;29904;51.058;5.378;2023-04-03T06:32:04;7.28;;;3.45;;
44228;SDS011;29904;51.058;5.378;2023-04-03T06:34:29;5.90;;;3.00;;
44228;SDS011;29904;51.058;5.378;2023-04-03T06:36:57;8.60;;;3.43;;
44228;SDS011;29904;51.058;5.378;2023-04-03T06:39:23;7.73;;;3.50;;
44228;SDS011;29904;51.058;5.378;2023-04-03T06:41:49;7.55;;;3.40;;
44228;SDS011;29904;51.058;5.378;2023-04-03T06:44:17;6.32;;;3.45;;
44228;SDS011;29904;51.058;5.378;2023-04-03T06:46:43;9.05;;;3.45;;
44228;SDS011;29904;51.058;5.378;2023-04-03T06:49:10;6.70;;;3.22;;
44228;SDS011;29904;51.058;5.378;2023-04-03T06:51:36;5.47;;;3.00;;
44228;SDS011;29904;51.058;5.378;2023-04-03T06:54:03;6.50;;;3.22;;
44228;SDS011;29904;51.058;5.378;2023-04-03T06:56:30;6.20;;;3.20;;
44228;SDS011;29904;51.058;5.378;2023-04-03T06:58:58;6.07;;;2.95;;
44228;SDS011;29904;51.058;5.378;2023-04-03T07:01:25;7.03;;;3.20;;
44228;SDS011;29904;51.058;5.378;2023-04-03T07:03:52;6.03;;;3.00;;
44228;SDS011;29904;51.058;5.378;2023-04-03T07:06:18;5.50;;;2.53;;
44228;SDS011;29904;51.058;5.378;2023-04-03T07:08:45;6.90;;;2.80;;
44228;SDS011;29904;51.058;5.378;2023-04-03T07:11:11;5.77;;;2.80;;
44228;SDS011;29904;51.058;5.378;2023-04-03T07:13:37;6.25;;;2.50;;
44228;SDS011;29904;51.058;5.378;2023-04-03T07:16:04;7.43;;;2.78;;
44228;SDS011;29904;51.058;5.378;2023-04-03T07:18:31;4.97;;;2.25;;
44228;SDS011;29904;51.058;5.378;2023-04-03T07:20:58;5.45;;;2.45;;
44228;SDS011;29904;51.058;5.378;2023-04-03T07:23:27;5.82;;;2.20;;
44228;SDS011;29904;51.058;5.378;2023-04-03T07:25:53;5.35;;;2.53;;
44228;SDS011;29904;51.058;5.378;2023-04-03T07:28:19;6.88;;;2.58;;
44228;SDS011;29904;51.058;5.378;2023-04-03T07:30:53;8.57;;;2.75;;
44228;SDS011;29904;51.058;5.378;2023-04-03T07:33:24;6.47;;;2.60;;
44228;SDS011;29904;51.058;5.378;2023-04-03T07:35:51;7.90;;;2.57;;
44228;SDS011;29904;51.058;5.378;2023-04-03T07:38:17;4.45;;;2.35;;
44228;SDS011;29904;51.058;5.378;2023-04-03T07:40:49;4.57;;;2.20;;
44228;SDS011;29904;51.058;5.378;2023-04-03T07:43:17;5.70;;;2.35;;
44228;SDS011;29904;51.058;5.378;2023-04-03T07:45:43;5.57;;;2.30;;
44228;SDS011;29904;51.058;5.378;2023-04-03T07:48:14;5.87;;;2.20;;
44228;SDS011;29904;51.058;5.378;2023-04-03T07:50:42;6.00;;;2.60;;
44228;SDS011;29904;51.058;5.378;2023-04-03T07:53:08;5.57;;;2.33;;
44228;SDS011;29904;51.058;5.378;2023-04-03T07:55:37;6.60;;;2.50;;
44228;SDS011;29904;51.058;5.378;2023-04-03T07:58:11;6.95;;;2.65;;
44228;SDS011;29904;51.058;5.378;2023-04-03T08:00:39;5.05;;;2.40;;
44228;SDS011;29904;51.058;5.378;2023-04-03T08:03:06;6.35;;;2.35;;
44228;SDS011;29904;51.058;5.378;2023-04-03T08:05:38;5.60;;;2.20;;
44228;SDS011;29904;51.058;5.378;2023-04-03T08:08:05;5.05;;;2.58;;
44228;SDS011;29904;51.058;5.378;2023-04-03T08:10:32;4.68;;;2.00;;
44228;SDS011;29904;51.058;5.378;2023-04-03T08:12:58;4.60;;;2.20;;
44228;SDS011;29904;51.058;5.378;2023-04-03T08:15:23;4.93;;;2.25;;
44228;SDS011;29904;51.058;5.378;2023-04-03T08:17:49;4.28;;;2.00;;
44228;SDS011;29904;51.058;5.378;2023-04-03T08:20:16;5.93;;;2.15;;
44228;SDS011;29904;51.058;5.378;2023-04-03T08:22:42;7.35;;;2.20;;
44228;SDS011;29904;51.058;5.378;2023-04-03T08:25:10;6.45;;;2.40;;
44228;SDS011;29904;51.058;5.378;2023-04-03T08:27:35;4.40;;;2.23;;
44228;SDS011;29904;51.058;5.378;2023-04-03T08:30:02;6.47;;;2.35;;
44228;SDS011;29904;51.058;5.378;2023-04-03T08:32:31;4.60;;;2.10;;
44228;SDS011;29904;51.058;5.378;2023-04-03T08:34:58;4.70;;;2.08;;
44228;SDS011;29904;51.058;5.378;2023-04-03T08:37:24;4.75;;;2.10;;
44228;SDS011;29904;51.058;5.378;2023-04-03T08:39:50;6.10;;;2.22;;
44228;SDS011;29904;51.058;5.378;2023-04-03T08:42:21;6.07;;;1.80;;
44228;SDS011;29904;51.058;5.378;2023-04-03T08:45:22;4.87;;;2.00;;
44228;SDS011;29904;51.058;5.378;2023-04-03T08:48:05;4.75;;;1.88;;
44228;SDS011;29904;51.058;5.378;2023-04-03T08:50:38;4.45;;;1.98;;
44228;SDS011;29904;51.058;5.378;2023-04-03T08:53:20;7.13;;;2.30;;
44228;SDS011;29904;51.058;5.378;2023-04-03T08:55:50;5.68;;;2.00;;
44228;SDS011;29904;51.058;5.378;2023-04-03T08:58:21;6.20;;;2.25;;
44228;SDS011;29904;51.058;5.378;2023-04-03T09:00:51;4.30;;;1.90;;
44228;SDS011;29904;51.058;5.378;2023-04-03T09:03:30;5.60;;;1.83;;
44228;SDS011;29904;51.058;5.378;2023-04-03T09:06:04;4.15;;;1.60;;
44228;SDS011;29904;51.058;5.378;2023-04-03T09:17:16;3.27;;;1.57;;
44228;SDS011;29904;51.058;5.378;2023-04-03T09:19:58;6.28;;;2.03;;
44228;SDS011;29904;51.058;5.378;2023-04-03T09:22:43;5.78;;;1.85;;
44228;SDS011;29904;51.058;5.378;2023-04-03T09:25:17;4.43;;;1.67;;
44228;SDS011;29904;51.058;5.378;2023-04-03T09:27:47;4.00;;;1.67;;
44228;SDS011;29904;51.058;5.378;2023-04-03T09:30:17;3.83;;;1.50;;
44228;SDS011;29904;51.058;5.378;2023-04-03T09:32:46;4.18;;;1.48;;
44228;SDS011;29904;51.058;5.378;2023-04-03T09:37:46;5.40;;;1.80;;
44228;SDS011;29904;51.058;5.378;2023-04-03T09:43:18;5.18;;;1.40;;
44228;SDS011;29904;51.058;5.378;2023-04-03T09:45:50;3.42;;;1.35;;
44228;SDS011;29904;51.058;5.378;2023-04-03T09:48:19;3.85;;;1.25;;
44228;SDS011;29904;51.058;5.378;2023-04-03T09:58:46;4.88;;;1.30;;
44228;SDS011;29904;51.058;5.378;2023-04-03T10:01:21;3.22;;;1.40;;
44228;SDS011;29904;51.058;5.378;2023-04-03T10:04:10;3.28;;;1.20;;
44228;SDS011;29904;51.058;5.378;2023-04-03T10:14:28;2.42;;;1.00;;
44228;SDS011;29904;51.058;5.378;2023-04-03T10:25:47;3.72;;;1.20;;
44228;SDS011;29904;51.058;5.378;2023-04-03T10:28:00;2.05;;;0.80;;
44228;SDS011;29904;51.058;5.378;2023-04-03T10:41:31;1.67;;;0.70;;
44228;SDS011;29904;51.058;5.378;2023-04-03T10:46:38;2.90;;;0.90;;
44228;SDS011;29904;51.058;5.378;2023-04-03T10:49:25;2.75;;;0.98;;
44228;SDS011;29904;51.058;5.378;2023-04-03T10:58:00;2.23;;;0.90;;
44228;SDS011;29904;51.058;5.378;2023-04-03T11:00:39;1.73;;;0.90;;
44228;SDS011;29904;51.058;5.378;2023-04-03T11:06:08;4.15;;;1.25;;
44228;SDS011;29904;51.058;5.378;2023-04-03T11:08:44;3.33;;;0.95;;
44228;SDS011;29904;51.058;5.378;2023-04-03T11:11:34;2.90;;;0.82;;
44228;SDS011;29904;51.058;5.378;2023-04-03T11:14:17;3.88;;;1.23;;
44228;SDS011;29904;51.058;5.378;2023-04-03T11:16:54;2.65;;;0.93;;
44228;SDS011;29904;51.058;5.378;2023-04-03T11:22:43;2.70;;;1.00;;
44228;SDS011;29904;51.058;5.378;2023-04-03T11:25:24;2.97;;;1.10;;
44228;SDS011;29904;51.058;5.378;2023-04-03T11:28:01;2.50;;;0.80;;
44228;SDS011;29904;51.058;5.378;2023-04-03T11:30:34;3.80;;;1.00;;
44228;SDS011;29904;51.058;5.378;2023-04-03T11:35:45;1.75;;;0.88;;
44228;SDS011;29904;51.058;5.378;2023-04-03T11:38:22;2.53;;;1.10;;
44228;SDS011;29904;51.058;5.378;2023-04-03T11:40:51;3.37;;;1.13;;
44228;SDS011;29904;51.058;5.378;2023-04-03T11:43:28;1.88;;;0.95;;
44228;SDS011;29904;51.058;5.378;2023-04-03T11:45:57;2.63;;;1.00;;
44228;SDS011;29904;51.058;5.378;2023-04-03T11:53:42;1.83;;;0.90;;
44228;SDS011;29904;51.058;5.378;2023-04-03T12:01:44;2.60;;;0.70;;
44228;SDS011;29904;51.058;5.378;2023-04-03T12:04:12;1.83;;;0.68;;
44228;SDS011;29904;51.058;5.378;2023-04-03T12:11:56;1.83;;;0.60;;
44228;SDS011;29904;51.058;5.378;2023-04-03T12:14:25;2.15;;;0.88;;
44228;SDS011;29904;51.058;5.378;2023-04-03T12:16:51;1.20;;;0.70;;
44228;SDS011;29904;51.058;5.378;2023-04-03T12:19:38;1.50;;;0.60;;
44228;SDS011;29904;51.058;5.378;2023-04-03T12:22:18;3.38;;;0.90;;
44228;SDS011;29904;51.058;5.378;2023-04-03T12:24:48;2.17;;;0.77;;
44228;SDS011;29904;51.058;5.378;2023-04-03T12:48:58;3.25;;;1.00;;
44228;SDS011;29904;51.058;5.378;2023-04-03T12:54:15;2.50;;;0.97;;
44228;SDS011;29904;51.058;5.378;2023-04-03T12:56:45;1.73;;;0.80;;
44228;SDS011;29904;51.058;5.378;2023-04-03T12:59:15;2.15;;;0.82;;
44228;SDS011;29904;51.058;5.378;2023-04-03T13:01:59;2.67;;;0.90;;
44228;SDS011;29904;51.058;5.378;2023-04-03T13:04:29;2.53;;;1.00;;
44228;SDS011;29904;51.058;5.378;2023-04-03T13:06:57;1.67;;;0.90;;
44228;SDS011;29904;51.058;5.378;2023-04-03T13:09:27;1.75;;;0.80;;
44228;SDS011;29904;51.058;5.378;2023-04-03T13:12:15;3.50;;;1.02;;
44228;SDS011;29904;51.058;5.378;2023-04-03T13:14:51;2.55;;;0.90;;
44228;SDS011;29904;51.058;5.378;2023-04-03T13:17:18;3.63;;;0.90;;
44228;SDS011;29904;51.058;5.378;2023-04-03T13:19:44;2.27;;;0.97;;
44228;SDS011;29904;51.058;5.378;2023-04-03T13:22:25;2.50;;;0.90;;
44228;SDS011;29904;51.058;5.378;2023-04-03T13:24:54;3.58;;;1.10;;
44228;SDS011;29904;51.058;5.378;2023-04-03T13:27:22;2.85;;;1.20;;
44228;SDS011;29904;51.058;5.378;2023-04-03T13:29:52;3.03;;;1.52;;
44228;SDS011;29904;51.058;5.378;2023-04-03T13:32:22;5.10;;;1.70;;
44228;SDS011;29904;51.058;5.378;2023-04-03T13:34:50;2.93;;;1.13;;
44228;SDS011;29904;51.058;5.378;2023-04-03T13:37:21;2.37;;;1.10;;
44228;SDS011;29904;51.058;5.378;2023-04-03T13:42:28;3.55;;;1.17;;
44228;SDS011;29904;51.058;5.378;2023-04-03T13:48:11;4.30;;;1.15;;
44228;SDS011;29904;51.058;5.378;2023-04-03T13:51:03;2.65;;;1.30;;
44228;SDS011;29904;51.058;5.378;2023-04-03T13:53:48;2.95;;;1.13;;
44228;SDS011;29904;51.058;5.378;2023-04-03T13:56:26;2.90;;;1.38;;
44228;SDS011;29904;51.058;5.378;2023-04-03T14:04:18;2.20;;;1.20;;
44228;SDS011;29904;51.058;5.378;2023-04-03T14:06:53;3.35;;;1.20;;
44228;SDS011;29904;51.058;5.378;2023-04-03T14:09:22;3.15;;;1.23;;
44228;SDS011;29904;51.058;5.378;2023-04-03T14:11:52;3.17;;;1.15;;
44228;SDS011;29904;51.058;5.378;2023-04-03T14:14:32;2.08;;;0.90;;
44228;SDS011;29904;51.058;5.378;2023-04-03T14:16:59;3.05;;;1.05;;
44228;SDS011;29904;51.058;5.378;2023-04-03T14:19:29;1.55;;;0.90;;
44228;SDS011;29904;51.058;5.378;2023-04-03T14:21:58;3.00;;;1.20;;
44228;SDS011;29904;51.058;5.378;2023-04-03T14:24:25;2.42;;;0.95;;
44228;SDS011;29904;51.058;5.378;2023-04-03T14:26:53;2.78;;;1.10;;
44228;SDS011;29904;51.058;5.378;2023-04-03T14:29:22;3.03;;;1.30;;
44228;SDS011;29904;51.058;5.378;2023-04-03T14:31:48;2.42;;;1.10;;
44228;SDS011;29904;51.058;5.378;2023-04-03T14:34:15;1.98;;;1.10;;
44228;SDS011;29904;51.058;5.378;2023-04-03T14:36:43;3.08;;;1.08;;
44228;SDS011;29904;51.058;5.378;2023-04-03T14:39:10;2.40;;;1.20;;
44228;SDS011;29904;51.058;5.378;2023-04-03T14:41:42;2.13;;;1.20;;
44228;SDS011;29904;51.058;5.378;2023-04-03T14:44:10;2.88;;;1.10;;
44228;SDS011;29904;51.058;5.378;2023-04-03T14:46:38;1.95;;;1.02;;
44228;SDS011;29904;51.058;5.378;2023-04-03T14:49:18;2.60;;;1.40;;
44228;SDS011;29904;51.058;5.378;2023-04-03T14:51:46;3.92;;;1.40;;
44228;SDS011;29904;51.058;5.378;2023-04-03T14:54:13;3.92;;;1.20;;
44228;SDS011;29904;51.058;5.378;2023-04-03T14:56:41;3.42;;;1.10;;
44228;SDS011;29904;51.058;5.378;2023-04-03T14:59:08;2.07;;;1.10;;
44228;SDS011;29904;51.058;5.378;2023-04-03T15:01:37;4.68;;;1.10;;
44228;SDS011;29904;51.058;5.378;2023-04-03T15:04:08;3.00;;;1.13;;
44228;SDS011;29904;51.058;5.378;2023-04-03T15:06:36;3.03;;;1.30;;
44228;SDS011;29904;51.058;5.378;2023-04-03T15:09:02;3.93;;;1.53;;
44228;SDS011;29904;51.058;5.378;2023-04-03T15:11:28;3.17;;;1.23;;
44228;SDS011;29904;51.058;5.378;2023-04-03T15:13:54;2.50;;;1.10;;
44228;SDS011;29904;51.058;5.378;2023-04-03T15:16:19;3.13;;;1.00;;
44228;SDS011;29904;51.058;5.378;2023-04-03T15:18:46;2.90;;;1.35;;
44228;SDS011;29904;51.058;5.378;2023-04-03T15:21:12;3.15;;;1.30;;
44228;SDS011;29904;51.058;5.378;2023-04-03T15:23:39;2.60;;;1.00;;
44228;SDS011;29904;51.058;5.378;2023-04-03T15:26:05;3.90;;;1.45;;
44228;SDS011;29904;51.058;5.378;2023-04-03T15:28:34;2.75;;;1.10;;
44228;SDS011;29904;51.058;5.378;2023-04-03T15:31:02;5.32;;;1.35;;
44228;SDS011;29904;51.058;5.378;2023-04-03T15:33:29;2.70;;;1.17;;
44228;SDS011;29904;51.058;5.378;2023-04-03T15:35:55;2.35;;;1.00;;
44228;SDS011;29904;51.058;5.378;2023-04-03T15:38:23;3.30;;;1.10;;
44228;SDS011;29904;51.058;5.378;2023-04-03T15:40:49;2.40;;;1.15;;
44228;SDS011;29904;51.058;5.378;2023-04-03T15:43:15;2.55;;;1.00;;
44228;SDS011;29904;51.058;5.378;2023-04-03T15:45:41;3.53;;;1.17;;
44228;SDS011;29904;51.058;5.378;2023-04-03T15:48:08;3.10;;;0.90;;
44228;SDS011;29904;51.058;5.378;2023-04-03T15:50:34;2.65;;;1.17;;
44228;SDS011;29904;51.058;5.378;2023-04-03T15:53:02;3.30;;;1.00;;
44228;SDS011;29904;51.058;5.378;2023-04-03T15:55:30;2.97;;;1.10;;
44228;SDS011;29904;51.058;5.378;2023-04-03T15:57:57;3.65;;;1.27;;
44228;SDS011;29904;51.058;5.378;2023-04-03T16:00:26;2.75;;;1.13;;
44228;SDS011;29904;51.058;5.378;2023-04-03T16:02:53;2.10;;;0.90;;
44228;SDS011;29904;51.058;5.378;2023-04-03T16:05:23;2.28;;;1.02;;
44228;SDS011;29904;51.058;5.378;2023-04-03T16:07:49;1.65;;;0.98;;
44228;SDS011;29904;51.058;5.378;2023-04-03T16:10:16;2.50;;;1.00;;
44228;SDS011;29904;51.058;5.378;2023-04-03T16:12:43;3.03;;;1.00;;
44228;SDS011;29904;51.058;5.378;2023-04-03T16:15:09;2.87;;;1.23;;
44228;SDS011;29904;51.058;5.378;2023-04-03T16:17:38;3.25;;;1.10;;
44228;SDS011;29904;51.058;5.378;2023-04-03T16:20:06;1.90;;;0.90;;
44228;SDS011;29904;51.058;5.378;2023-04-03T16:22:33;3.65;;;1.10;;
44228;SDS011;29904;51.058;5.378;2023-04-03T16:25:01;2.92;;;1.23;;
44228;SDS011;29904;51.058;5.378;2023-04-03T16:27:28;2.72;;;1.00;;
44228;SDS011;29904;51.058;5.378;2023-04-03T16:29:56;2.42;;;1.55;;
44228;SDS011;29904;51.058;5.378;2023-04-03T16:32:24;2.30;;;1.20;;
44228;SDS011;29904;51.058;5.378;2023-04-03T16:34:53;2.53;;;1.10;;
44228;SDS011;29904;51.058;5.378;2023-04-03T16:37:20;4.80;;;1.40;;
44228;SDS011;29904;51.058;5.378;2023-04-03T16:39:46;6.80;;;3.37;;
44228;SDS011;29904;51.058;5.378;2023-04-03T16:42:11;4.63;;;2.27;;
44228;SDS011;29904;51.058;5.378;2023-04-03T16:44:37;3.53;;;1.90;;
44228;SDS011;29904;51.058;5.378;2023-04-03T16:47:04;4.68;;;2.17;;
44228;SDS011;29904;51.058;5.378;2023-04-03T16:49:31;4.60;;;2.08;;
44228;SDS011;29904;51.058;5.378;2023-04-03T16:52:03;4.30;;;1.27;;
44228;SDS011;29904;51.058;5.378;2023-04-03T16:54:30;1.90;;;0.90;;
44228;SDS011;29904;51.058;5.378;2023-04-03T16:56:56;2.05;;;0.88;;
44228;SDS011;29904;51.058;5.378;2023-04-03T16:59:22;1.95;;;0.90;;
44228;SDS011;29904;51.058;5.378;2023-04-03T17:01:49;2.92;;;1.10;;